Аэропорт: Аулие-Ата. Тараз

ICAO: UADD

METAR:
2019-07-23 18:30:00
UADD 231830Z 23002MPS 9999 NSC 22/07 Q1009 R13/0///65 NOSIG RMK QFE700/0933
METAR:
2019-07-23 17:00:00
TAF UADD 231700Z 2318/2403 32003G08MPS 9999 NSC